createdAt,value
2023-08-24T00:00:56.270Z,18.80
2023-08-24T00:05:58.453Z,18.80
2023-08-24T00:11:08.946Z,18.70
2023-08-24T00:16:11.324Z,18.70
2023-08-24T00:21:23.993Z,18.70
2023-08-24T00:26:26.595Z,18.60
2023-08-24T00:31:31.361Z,18.50
2023-08-24T00:36:43.526Z,18.40
2023-08-24T00:41:50.059Z,18.50
2023-08-24T00:46:56.361Z,18.50
2023-08-24T00:51:58.825Z,18.50
2023-08-24T00:57:07.931Z,18.50
2023-08-24T01:02:35.155Z,18.60
2023-08-24T01:07:41.361Z,18.60
2023-08-24T01:12:50.093Z,18.60
2023-08-24T01:17:57.114Z,18.60
2023-08-24T01:23:05.396Z,18.60
2023-08-24T01:28:09.528Z,18.70
2023-08-24T01:33:13.326Z,18.50
2023-08-24T01:38:16.741Z,18.30
2023-08-24T01:43:36.799Z,18.00
2023-08-24T01:48:46.547Z,18.20
2023-08-24T01:53:49.152Z,18.10
2023-08-24T01:58:51.519Z,18.20
2023-08-24T02:03:53.962Z,18.10
2023-08-24T02:08:56.237Z,18.00
2023-08-24T02:13:58.383Z,18.00
2023-08-24T02:19:00.773Z,18.10
2023-08-24T02:24:02.960Z,18.00
2023-08-24T02:29:07.349Z,18.10
2023-08-24T02:34:09.612Z,18.10
2023-08-24T02:39:11.765Z,18.20
2023-08-24T02:44:13.975Z,18.20
2023-08-24T02:49:16.166Z,18.20
2023-08-24T02:54:20.424Z,18.00
2023-08-24T02:59:25.365Z,18.00
2023-08-24T03:04:28.250Z,18.00
2023-08-24T03:09:31.389Z,18.00
2023-08-24T03:14:33.534Z,18.00
2023-08-24T03:19:36.899Z,17.90
2023-08-24T03:24:39.236Z,17.90
2023-08-24T03:29:42.692Z,18.00
2023-08-24T03:34:45.394Z,17.90
2023-08-24T03:39:48.481Z,17.90
2023-08-24T03:44:52.004Z,17.90
2023-08-24T03:49:54.177Z,18.00
2023-08-24T03:54:56.441Z,17.90
2023-08-24T03:59:59.244Z,18.00
2023-08-24T04:05:05.643Z,17.90
2023-08-24T04:10:08.540Z,17.80
2023-08-24T04:15:11.335Z,17.90
2023-08-24T04:20:14.470Z,17.90
2023-08-24T04:25:17.644Z,17.90
2023-08-24T04:30:20.858Z,17.90
2023-08-24T04:35:23.092Z,17.90
2023-08-24T04:40:25.379Z,17.90
2023-08-24T04:45:27.539Z,17.80
2023-08-24T04:50:29.615Z,17.80
2023-08-24T04:55:31.715Z,17.70
2023-08-24T05:00:34.648Z,17.70
2023-08-24T05:05:38.397Z,17.70
2023-08-24T05:10:41.836Z,17.70
2023-08-24T05:15:45.170Z,17.80
2023-08-24T05:20:47.294Z,17.80
2023-08-24T05:25:49.518Z,17.70
2023-08-24T05:30:56.362Z,17.70
2023-08-24T05:35:59.820Z,17.70
2023-08-24T05:41:02.587Z,17.70
2023-08-24T05:46:04.928Z,17.70
2023-08-24T05:51:10.548Z,17.80
2023-08-24T05:56:12.826Z,17.80
2023-08-24T06:01:14.934Z,17.90
2023-08-24T06:06:20.242Z,17.80
2023-08-24T06:11:22.373Z,17.80
2023-08-24T06:16:24.524Z,17.90
2023-08-24T06:21:28.246Z,17.90
2023-08-24T06:26:30.391Z,17.80
2023-08-24T06:31:34.141Z,17.90
2023-08-24T06:36:36.282Z,17.90
2023-08-24T06:41:38.386Z,17.80
2023-08-24T06:46:43.367Z,17.90
2023-08-24T06:51:45.478Z,17.90
2023-08-24T06:56:47.718Z,18.00
2023-08-24T07:01:52.776Z,18.00
2023-08-24T07:06:55.523Z,17.90
2023-08-24T07:11:57.621Z,18.00
2023-08-24T07:16:59.805Z,17.90
2023-08-24T07:22:03.082Z,18.00
2023-08-24T07:27:05.737Z,18.10
2023-08-24T07:32:09.737Z,18.10
2023-08-24T07:37:12.168Z,18.10
2023-08-24T07:42:14.562Z,18.00
2023-08-24T07:47:17.454Z,17.90
2023-08-24T07:52:20.063Z,18.10
2023-08-24T07:57:25.107Z,18.30
2023-08-24T08:02:27.594Z,18.40
2023-08-24T08:07:29.814Z,18.60
2023-08-24T08:12:33.482Z,18.60
2023-08-24T08:17:36.195Z,18.60
2023-08-24T08:22:39.910Z,18.70
2023-08-24T08:27:42.069Z,18.60
2023-08-24T08:32:44.685Z,18.60
2023-08-24T08:37:47.695Z,18.80
2023-08-24T08:42:50.748Z,19.10
2023-08-24T08:48:04.475Z,19.20
2023-08-24T08:53:06.739Z,19.30
2023-08-24T08:58:09.832Z,19.70
2023-08-24T09:03:12.675Z,19.90
2023-08-24T09:08:19.341Z,20.10
2023-08-24T09:13:22.504Z,20.20
2023-08-24T09:18:39.202Z,20.50
2023-08-24T09:23:54.481Z,20.60
2023-08-24T09:28:56.774Z,20.70
2023-08-24T09:34:02.076Z,20.90
2023-08-24T09:39:06.183Z,20.90
2023-08-24T09:44:09.768Z,20.80
2023-08-24T09:49:13.592Z,20.80
2023-08-24T09:54:20.855Z,20.80
2023-08-24T09:59:26.254Z,20.90
2023-08-24T10:04:35.099Z,20.60
2023-08-24T10:09:45.115Z,20.20
2023-08-24T10:15:11.794Z,20.30
2023-08-24T10:20:16.225Z,20.30
2023-08-24T10:25:28.843Z,20.00
2023-08-24T10:30:36.387Z,20.00
2023-08-24T10:35:55.057Z,19.90
2023-08-24T10:41:08.447Z,20.00
2023-08-24T10:46:15.184Z,20.00
2023-08-24T10:51:21.047Z,19.90
2023-08-24T10:56:55.321Z,20.00
2023-08-24T11:01:57.605Z,20.20
2023-08-24T11:07:03.099Z,20.50
2023-08-24T11:12:06.249Z,20.40
2023-08-24T11:17:33.287Z,20.70
2023-08-24T11:22:36.596Z,21.10
2023-08-24T11:27:39.700Z,21.00
2023-08-24T11:32:41.859Z,20.80
2023-08-24T11:37:44.034Z,21.00
2023-08-24T11:42:46.701Z,21.20
2023-08-24T11:47:49.839Z,21.30
2023-08-24T11:52:53.975Z,20.90
2023-08-24T11:57:56.823Z,20.70
2023-08-24T12:02:59.446Z,20.50
2023-08-24T12:08:01.849Z,20.50
2023-08-24T12:13:08.760Z,20.70
2023-08-24T12:18:18.033Z,20.60
2023-08-24T12:23:21.041Z,20.50
2023-08-24T12:28:23.249Z,20.50
2023-08-24T12:33:27.366Z,20.60
2023-08-24T12:38:29.514Z,20.80
2023-08-24T12:43:31.707Z,21.00
2023-08-24T12:48:36.844Z,21.20
2023-08-24T12:53:39.411Z,21.00
2023-08-24T12:58:41.614Z,21.30
2023-08-24T13:03:43.776Z,21.50
2023-08-24T13:08:46.061Z,21.50
2023-08-24T13:13:52.710Z,21.40
2023-08-24T13:18:57.101Z,21.30
2023-08-24T13:23:59.314Z,21.40
2023-08-24T13:29:02.423Z,21.70
2023-08-24T13:34:08.500Z,21.70
2023-08-24T13:39:12.052Z,21.60
2023-08-24T13:44:14.523Z,21.50
2023-08-24T13:49:29.383Z,21.20
2023-08-24T13:54:38.767Z,21.00
2023-08-24T13:59:41.220Z,21.10
2023-08-24T14:04:45.270Z,21.10
2023-08-24T14:09:59.595Z,21.00
2023-08-24T14:15:07.868Z,20.80
2023-08-24T14:20:10.859Z,20.60
2023-08-24T14:25:13.005Z,20.50
2023-08-24T14:30:15.314Z,20.40
2023-08-24T14:35:17.561Z,20.10
2023-08-24T14:40:21.045Z,19.90
2023-08-24T14:45:23.314Z,19.80
2023-08-24T14:50:25.424Z,20.20
2023-08-24T14:55:27.585Z,20.40
2023-08-24T15:00:29.813Z,20.80
2023-08-24T15:05:31.981Z,21.10
2023-08-24T15:10:34.157Z,21.50
2023-08-24T15:15:38.806Z,21.20
2023-08-24T15:20:46.484Z,21.30
2023-08-24T15:25:48.661Z,21.20
2023-08-24T15:30:51.387Z,21.60
2023-08-24T15:35:54.006Z,21.50
2023-08-24T15:40:56.335Z,21.50
2023-08-24T15:45:58.791Z,21.70
2023-08-24T15:51:01.097Z,21.90
2023-08-24T15:56:03.385Z,21.70
2023-08-24T16:01:08.100Z,21.60
2023-08-24T16:06:10.616Z,21.60
2023-08-24T16:11:13.473Z,21.60
2023-08-24T16:16:15.728Z,21.20
2023-08-24T16:21:22.571Z,20.80
2023-08-24T16:26:26.415Z,20.30
2023-08-24T16:31:34.135Z,19.90
2023-08-24T16:36:39.152Z,19.60
2023-08-24T16:41:41.366Z,19.50
2023-08-24T16:46:43.599Z,19.60
2023-08-24T16:51:55.508Z,19.60
2023-08-24T16:57:02.523Z,19.80
2023-08-24T17:02:11.785Z,19.70
2023-08-24T17:07:13.937Z,19.60
2023-08-24T17:12:16.160Z,19.30
2023-08-24T17:17:18.376Z,19.20
2023-08-24T17:22:20.530Z,19.20
2023-08-24T17:27:22.936Z,19.10
2023-08-24T17:32:28.034Z,19.10
2023-08-24T17:37:30.290Z,19.30
2023-08-24T17:42:32.438Z,19.40
2023-08-24T17:47:34.719Z,19.80
2023-08-24T17:52:37.187Z,19.70
2023-08-24T17:57:42.150Z,19.20
2023-08-24T18:02:47.397Z,19.20
2023-08-24T18:07:54.640Z,19.10
2023-08-24T18:12:57.063Z,19.20
2023-08-24T18:18:05.909Z,19.00
2023-08-24T18:23:08.192Z,19.20
2023-08-24T18:28:10.418Z,19.10
2023-08-24T18:33:13.937Z,18.80
2023-08-24T18:38:21.154Z,18.50
2023-08-24T18:43:23.829Z,18.20
2023-08-24T18:48:38.571Z,18.00
2023-08-24T19:04:17.385Z,18.00
2023-08-24T19:09:25.940Z,18.00
2023-08-24T19:15:08.510Z,17.90
2023-08-24T19:20:35.709Z,18.00
2023-08-24T19:25:49.830Z,18.00
2023-08-24T19:31:13.911Z,18.00
2023-08-24T19:36:16.305Z,18.00
2023-08-24T19:41:18.538Z,17.90
2023-08-24T19:46:20.748Z,17.90
2023-08-24T19:51:26.699Z,17.90
2023-08-24T19:56:35.832Z,17.80
2023-08-24T20:01:40.748Z,17.90
2023-08-24T20:12:34.111Z,17.90
2023-08-24T20:17:51.920Z,17.70
2023-08-24T20:34:09.783Z,17.50
2023-08-24T20:39:20.985Z,17.50
2023-08-24T20:44:23.372Z,17.40
2023-08-24T20:49:28.381Z,17.30
2023-08-24T21:00:44.164Z,17.20
2023-08-24T21:05:56.996Z,17.20
2023-08-24T21:11:33.024Z,17.10
2023-08-24T21:22:20.402Z,16.90
2023-08-24T21:28:14.118Z,16.80
2023-08-24T21:44:41.423Z,16.70
2023-08-24T21:49:58.643Z,16.70
2023-08-24T21:55:35.999Z,16.70
2023-08-24T22:00:45.281Z,16.60
2023-08-24T22:06:16.277Z,16.60
2023-08-24T22:11:59.287Z,16.60
2023-08-24T22:17:17.619Z,16.60
2023-08-24T22:27:55.433Z,16.50
2023-08-24T22:33:30.917Z,16.50
2023-08-24T22:44:34.142Z,16.50
2023-08-24T22:49:36.472Z,16.60
2023-08-24T22:54:40.344Z,16.60
2023-08-24T23:00:31.239Z,16.70
2023-08-24T23:12:27.831Z,16.70
2023-08-24T23:17:35.737Z,16.70
2023-08-24T23:22:40.447Z,16.70
2023-08-24T23:28:53.075Z,16.60
2023-08-24T23:35:01.382Z,16.60
2023-08-24T23:40:37.133Z,16.60
2023-08-24T23:45:59.346Z,16.50
2023-08-24T23:56:38.346Z,16.30
